createdAt,value
2018-06-05T00:00:12.499Z,69.58
2018-06-05T00:02:43.118Z,69.78
2018-06-05T00:05:13.041Z,70.07
2018-06-05T00:07:43.181Z,70.65
2018-06-05T00:10:15.193Z,70.62
2018-06-05T00:12:45.850Z,70.26
2018-06-05T00:15:15.760Z,70.69
2018-06-05T00:17:45.773Z,70.47
2018-06-05T00:20:15.791Z,70.90
2018-06-05T00:22:45.705Z,71.03
2018-06-05T00:28:13.153Z,71.65
2018-06-05T00:30:44.940Z,72.24
2018-06-05T00:33:15.738Z,72.48
2018-06-05T00:35:47.229Z,72.29
2018-06-05T00:38:21.849Z,72.23
2018-06-05T00:40:52.801Z,72.50
2018-06-05T00:43:23.004Z,72.92
2018-06-05T00:45:53.273Z,73.27
2018-06-05T00:48:24.629Z,72.90
2018-06-05T00:50:57.366Z,73.24
2018-06-05T00:53:27.355Z,72.81
2018-06-05T00:55:59.959Z,72.51
2018-06-05T00:59:33.453Z,72.76
2018-06-05T01:02:04.093Z,73.35
2018-06-05T01:04:39.037Z,73.66
2018-06-05T01:07:20.288Z,73.44
2018-06-05T01:10:03.117Z,74.18
2018-06-05T01:12:38.156Z,73.56
2018-06-05T01:15:08.279Z,73.72
2018-06-05T01:17:46.125Z,74.07
2018-06-05T01:20:17.000Z,74.36
2018-06-05T01:22:47.659Z,74.38
2018-06-05T01:25:17.952Z,73.78
2018-06-05T01:28:50.759Z,74.49
2018-06-05T01:34:25.408Z,74.23
2018-06-05T01:36:55.834Z,74.26
2018-06-05T01:39:40.564Z,74.68
2018-06-05T01:42:11.539Z,74.33
2018-06-05T01:44:44.358Z,74.64
2018-06-05T01:47:14.574Z,74.45
2018-06-05T01:49:44.976Z,74.61
2018-06-05T01:52:17.168Z,74.44
2018-06-05T01:54:49.440Z,74.49
2018-06-05T01:57:20.832Z,74.45
2018-06-05T01:59:51.604Z,74.82
2018-06-05T02:02:25.405Z,74.98
2018-06-05T02:04:56.378Z,75.26
2018-06-05T02:07:28.408Z,75.95
2018-06-05T02:09:59.348Z,76.32
2018-06-05T02:12:31.493Z,76.22
2018-06-05T02:15:01.701Z,76.13
2018-06-05T02:17:32.298Z,75.92
2018-06-05T02:20:02.391Z,76.46
2018-06-05T02:22:34.832Z,76.58
2018-06-05T02:25:04.994Z,76.87
2018-06-05T02:27:35.592Z,77.20
2018-06-05T02:33:03.146Z,77.55
2018-06-05T02:35:34.424Z,77.91
2018-06-05T02:40:58.188Z,77.75
2018-06-05T02:43:29.727Z,78.30
2018-06-05T02:45:59.792Z,77.83
2018-06-05T02:48:30.053Z,78.28
2018-06-05T02:51:34.432Z,78.60
2018-06-05T02:54:04.516Z,78.82
2018-06-05T02:56:35.089Z,78.73
2018-06-05T02:59:05.226Z,78.62
2018-06-05T03:01:35.152Z,78.27
2018-06-05T03:04:06.798Z,78.06
2018-06-05T03:06:36.910Z,78.39
2018-06-05T03:09:09.138Z,79.04
2018-06-05T03:11:40.755Z,79.10
2018-06-05T03:14:11.349Z,78.69
2018-06-05T03:16:41.801Z,78.77
2018-06-05T03:19:13.889Z,78.73
2018-06-05T03:21:43.881Z,79.00
2018-06-05T03:24:13.879Z,78.66
2018-06-05T03:28:05.554Z,79.03
2018-06-05T03:33:32.452Z,79.22
2018-06-05T03:36:04.072Z,79.15
2018-06-05T03:38:35.177Z,79.65
2018-06-05T03:41:08.801Z,78.57
2018-06-05T03:43:39.398Z,78.99
2018-06-05T03:49:15.923Z,78.93
2018-06-05T03:52:00.135Z,78.36
2018-06-05T03:54:30.366Z,78.41
2018-06-05T03:59:46.673Z,78.03
2018-06-05T04:05:02.126Z,78.26
2018-06-05T04:08:24.449Z,77.94
2018-06-05T04:13:53.936Z,77.37
2018-06-05T04:16:35.599Z,76.94
2018-06-05T04:19:15.861Z,77.44
2018-06-05T04:21:46.641Z,77.08
2018-06-05T04:24:27.927Z,77.50
2018-06-05T04:27:02.229Z,77.22
2018-06-05T04:29:44.972Z,76.82
2018-06-05T04:34:51.328Z,77.64
2018-06-05T04:37:23.549Z,77.69
2018-06-05T04:39:54.502Z,78.29
2018-06-05T04:42:25.027Z,78.28
2018-06-05T04:44:58.181Z,77.72
2018-06-05T04:47:32.782Z,78.25
2018-06-05T04:50:08.225Z,77.66
2018-06-05T04:52:42.103Z,77.91
2018-06-05T04:55:14.200Z,78.06
2018-06-05T04:57:44.152Z,77.78
2018-06-05T05:00:15.249Z,78.21
2018-06-05T05:02:46.695Z,77.71
2018-06-05T05:05:16.573Z,77.64
2018-06-05T05:07:47.048Z,77.86
2018-06-05T05:10:18.369Z,78.22
2018-06-05T05:12:48.329Z,78.08
2018-06-05T05:15:19.473Z,77.90
2018-06-05T05:17:50.713Z,78.09
2018-06-05T05:20:21.017Z,77.94
2018-06-05T05:22:51.102Z,77.91
2018-06-05T05:25:30.629Z,77.72
2018-06-05T05:28:00.531Z,77.83
2018-06-05T05:30:30.529Z,77.67
2018-06-05T05:33:04.369Z,77.84
2018-06-05T05:35:34.561Z,77.05
2018-06-05T05:38:05.195Z,76.50
2018-06-05T05:40:35.486Z,76.37
2018-06-05T05:43:07.153Z,75.83
2018-06-05T05:45:37.746Z,75.31
2018-06-05T05:50:57.821Z,74.67
2018-06-05T05:53:27.677Z,74.45
2018-06-05T05:55:57.827Z,74.07
2018-06-05T05:58:28.821Z,73.10
2018-06-05T06:00:58.863Z,72.87
2018-06-05T06:03:28.674Z,72.36
2018-06-05T06:05:59.818Z,71.69
2018-06-05T06:08:29.643Z,70.86
2018-06-05T06:11:01.182Z,71.53
2018-06-05T06:13:31.137Z,71.46
2018-06-05T06:16:02.132Z,70.52
2018-06-05T06:18:32.262Z,69.40
2018-06-05T06:29:34.936Z,64.90
2018-06-05T06:34:43.442Z,63.33
2018-06-05T06:37:22.137Z,61.55
2018-06-05T06:39:52.869Z,62.36
2018-06-05T06:42:23.703Z,60.83
2018-06-05T06:44:55.324Z,62.60
2018-06-05T06:47:28.503Z,60.99
2018-06-05T06:49:58.779Z,61.91
2018-06-05T06:52:28.695Z,61.64
2018-06-05T06:54:58.755Z,62.11
2018-06-05T06:57:28.681Z,62.75
2018-06-05T06:59:59.569Z,62.33
2018-06-05T07:02:29.579Z,63.57
2018-06-05T07:05:06.050Z,63.23
2018-06-05T07:07:36.024Z,64.66
2018-06-05T07:10:06.087Z,65.36
2018-06-05T07:12:36.058Z,63.01
2018-06-05T07:17:49.941Z,62.74
2018-06-05T07:20:20.745Z,60.73
2018-06-05T07:25:31.794Z,59.67
2018-06-05T07:28:32.828Z,56.61
2018-06-05T07:33:39.575Z,54.73
2018-06-05T07:41:42.193Z,52.77
2018-06-05T07:44:23.154Z,52.70
2018-06-05T07:46:54.274Z,54.31
2018-06-05T07:49:31.280Z,54.11
2018-06-05T07:52:01.811Z,53.38
2018-06-05T07:54:33.891Z,55.30
2018-06-05T07:59:45.143Z,51.56
2018-06-05T08:02:22.775Z,51.26
2018-06-05T08:04:54.956Z,50.92
2018-06-05T08:07:31.530Z,47.66
2018-06-05T08:10:10.193Z,49.10
2018-06-05T08:12:49.381Z,49.26
2018-06-05T08:15:35.395Z,46.79
2018-06-05T08:18:40.340Z,48.01
2018-06-05T08:21:16.313Z,46.67
2018-06-05T08:27:03.244Z,48.03
2018-06-05T08:29:37.885Z,44.57
2018-06-05T08:32:23.941Z,43.17
2018-06-05T08:34:56.981Z,45.02
2018-06-05T08:40:53.495Z,42.38
2018-06-05T08:43:24.054Z,41.46
2018-06-05T08:45:59.736Z,38.51
2018-06-05T08:48:32.254Z,35.99
2018-06-05T08:51:04.515Z,37.04
2018-06-05T09:00:02.452Z,33.46
2018-06-05T09:02:39.663Z,34.20
2018-06-05T09:05:22.200Z,33.92
2018-06-05T09:10:40.500Z,32.59
2018-06-05T09:13:11.030Z,30.90
2018-06-05T09:15:41.041Z,33.85
2018-06-05T09:30:28.866Z,32.18
2018-06-05T09:33:00.440Z,32.66
2018-06-05T09:35:33.899Z,32.70
2018-06-05T09:38:04.595Z,34.46
2018-06-05T09:40:38.166Z,35.24
2018-06-05T09:43:08.810Z,32.46
2018-06-05T09:45:43.771Z,32.71
2018-06-05T09:48:13.780Z,33.06
2018-06-05T09:50:46.600Z,33.49
2018-06-05T09:53:17.771Z,31.04
2018-06-05T09:55:48.296Z,28.37
2018-06-05T10:14:53.382Z,25.60
2018-06-05T10:17:24.460Z,24.96
2018-06-05T10:23:46.413Z,23.68
2018-06-05T10:26:16.645Z,26.23
2018-06-05T10:28:49.118Z,26.50
2018-06-05T10:31:25.440Z,24.61
2018-06-05T10:33:57.629Z,27.43
2018-06-05T10:36:39.048Z,27.88
2018-06-05T10:39:43.248Z,28.05
2018-06-05T10:42:15.209Z,27.99
2018-06-05T10:44:50.139Z,27.39
2018-06-05T10:47:21.708Z,26.81
2018-06-05T10:52:53.367Z,25.72
2018-06-05T10:55:43.034Z,28.14
2018-06-05T11:00:57.217Z,28.87
2018-06-05T11:03:31.327Z,29.36
2018-06-05T11:06:05.091Z,27.83
2018-06-05T11:08:36.196Z,28.96
2018-06-05T11:11:11.308Z,30.11
2018-06-05T11:13:44.976Z,28.37
2018-06-05T11:16:15.854Z,28.38
2018-06-05T11:18:46.226Z,26.80
2018-06-05T11:21:29.930Z,26.54
2018-06-05T11:24:01.335Z,28.17
2018-06-05T11:29:33.656Z,26.44
2018-06-05T11:32:06.439Z,26.99
2018-06-05T11:34:37.383Z,28.59
2018-06-05T11:37:10.456Z,28.37
2018-06-05T11:39:41.438Z,30.06
2018-06-05T11:42:12.265Z,29.69
2018-06-05T11:44:43.445Z,27.30
2018-06-05T11:47:14.865Z,22.66
2018-06-05T11:50:15.169Z,20.86
2018-06-05T11:52:51.157Z,19.00
2018-06-05T11:55:28.433Z,19.18
2018-06-05T12:04:34.790Z,20.79
2018-06-05T12:07:06.348Z,20.95
2018-06-05T12:09:37.725Z,22.74
2018-06-05T12:12:08.783Z,24.12
2018-06-05T12:14:41.892Z,27.56
2018-06-05T12:17:13.484Z,26.98
2018-06-05T12:19:50.576Z,25.15
2018-06-05T12:22:23.103Z,23.03
2018-06-05T12:24:54.638Z,22.52
2018-06-05T12:27:34.626Z,21.07
2018-06-05T12:30:06.229Z,20.43
2018-06-05T12:32:37.785Z,21.20
2018-06-05T12:35:10.693Z,19.95
2018-06-05T12:37:42.202Z,18.67
2018-06-05T12:40:13.460Z,19.48
2018-06-05T12:42:47.490Z,20.35
2018-06-05T12:45:19.117Z,20.09
2018-06-05T12:47:51.822Z,21.27
2018-06-05T12:50:24.552Z,23.85
2018-06-05T12:52:59.484Z,25.36
2018-06-05T12:55:35.139Z,26.05
2018-06-05T13:03:45.947Z,28.27
2018-06-05T13:06:19.024Z,29.74
2018-06-05T13:11:39.364Z,30.58
2018-06-05T13:14:35.730Z,32.04
2018-06-05T13:17:24.579Z,32.66
2018-06-05T13:19:59.284Z,32.42
2018-06-05T13:22:32.256Z,31.44
2018-06-05T13:25:02.933Z,34.05
2018-06-05T13:27:35.546Z,31.13
2018-06-05T13:30:08.958Z,30.52
2018-06-05T13:32:46.322Z,31.02
2018-06-05T13:35:21.211Z,29.68
2018-06-05T13:38:07.159Z,29.26
2018-06-05T13:40:38.305Z,31.70
2018-06-05T13:43:08.979Z,30.97
2018-06-05T13:45:50.218Z,32.54
2018-06-05T13:48:21.476Z,33.53
2018-06-05T13:50:57.615Z,34.08
2018-06-05T13:53:29.255Z,34.54
2018-06-05T13:55:59.842Z,36.21
2018-06-05T13:58:42.495Z,35.83
2018-06-05T14:01:13.146Z,36.29
2018-06-05T14:03:43.470Z,36.16
2018-06-05T14:06:13.436Z,38.44
2018-06-05T14:08:44.096Z,37.78
2018-06-05T14:11:19.318Z,34.53
2018-06-05T14:13:49.401Z,29.21
2018-06-05T14:16:19.994Z,26.40
2018-06-05T14:18:50.802Z,24.52
2018-06-05T14:21:22.533Z,26.54
2018-06-05T14:23:52.677Z,21.42
2018-06-05T14:26:22.473Z,21.92
2018-06-05T14:28:54.301Z,20.55
2018-06-05T14:31:27.922Z,21.97
2018-06-05T14:33:57.842Z,20.99
2018-06-05T14:36:28.076Z,22.11
2018-06-05T14:38:59.213Z,25.51
2018-06-05T14:41:29.902Z,27.53
2018-06-05T14:44:00.628Z,28.03
2018-06-05T14:46:44.435Z,30.56
2018-06-05T14:49:18.648Z,32.04
2018-06-05T14:51:50.317Z,31.78
2018-06-05T14:54:20.414Z,34.40
2018-06-05T14:56:50.652Z,35.68
2018-06-05T14:59:20.692Z,36.82
2018-06-05T15:01:55.455Z,38.54
2018-06-05T15:04:29.508Z,38.54
2018-06-05T15:07:08.370Z,38.01
2018-06-05T15:09:45.856Z,39.41
2018-06-05T15:12:19.510Z,46.97
2018-06-05T15:14:53.625Z,51.52
2018-06-05T15:17:23.967Z,56.14
2018-06-05T15:19:54.583Z,54.07
2018-06-05T15:22:25.235Z,57.92
2018-06-05T15:24:58.530Z,60.27
2018-06-05T15:27:35.545Z,62.17
2018-06-05T15:30:06.686Z,64.17
2018-06-05T15:32:38.661Z,67.75
2018-06-05T15:35:10.858Z,68.08
2018-06-05T15:37:44.688Z,69.04
2018-06-05T15:40:23.390Z,70.96
2018-06-05T15:42:58.740Z,71.54
2018-06-05T15:45:29.920Z,71.84
2018-06-05T15:48:06.895Z,72.05
2018-06-05T15:50:51.612Z,73.55
2018-06-05T15:53:22.519Z,73.58
2018-06-05T15:55:53.914Z,73.49
2018-06-05T15:58:30.279Z,71.89
2018-06-05T16:01:01.738Z,70.45
2018-06-05T16:03:36.461Z,69.91
2018-06-05T16:06:09.150Z,71.16
2018-06-05T16:08:39.276Z,70.10
2018-06-05T16:11:12.104Z,71.13
2018-06-05T16:13:41.947Z,69.46
2018-06-05T16:16:14.750Z,70.62
2018-06-05T16:18:45.710Z,71.19
2018-06-05T16:21:16.820Z,71.57
2018-06-05T16:23:53.521Z,71.56
2018-06-05T16:26:25.992Z,71.58
2018-06-05T16:28:58.333Z,72.29
2018-06-05T16:31:30.689Z,72.80
2018-06-05T16:34:20.028Z,72.58
2018-06-05T16:36:54.247Z,74.38
2018-06-05T16:39:25.172Z,73.87
2018-06-05T16:41:56.181Z,74.23
2018-06-05T16:44:27.773Z,73.92
2018-06-05T16:46:57.844Z,73.72
2018-06-05T16:49:31.099Z,75.03
2018-06-05T16:52:12.208Z,75.13
2018-06-05T16:54:45.092Z,76.63
2018-06-05T16:57:26.108Z,76.61
2018-06-05T16:59:57.335Z,76.24
2018-06-05T17:02:30.713Z,76.59
2018-06-05T17:05:02.967Z,77.02
2018-06-05T17:10:49.197Z,76.11
2018-06-05T17:13:24.572Z,75.13
2018-06-05T17:15:57.147Z,76.25
2018-06-05T17:18:27.750Z,76.44
2018-06-05T17:21:00.187Z,75.83
2018-06-05T17:23:32.914Z,75.86
2018-06-05T17:26:08.586Z,75.33
2018-06-05T17:28:43.863Z,75.07
2018-06-05T17:31:15.404Z,74.41
2018-06-05T17:33:54.057Z,74.77
2018-06-05T17:36:25.743Z,73.93
2018-06-05T17:38:58.212Z,72.54
2018-06-05T17:41:47.659Z,73.71
2018-06-05T17:44:21.088Z,73.36
2018-06-05T17:46:53.168Z,73.48
2018-06-05T17:49:23.358Z,73.82
2018-06-05T17:51:55.899Z,73.07
2018-06-05T17:54:26.626Z,73.54
2018-06-05T17:56:57.311Z,72.26
2018-06-05T17:59:27.961Z,71.17
2018-06-05T18:02:02.631Z,72.65
2018-06-05T18:04:34.619Z,72.52
2018-06-05T18:07:10.488Z,72.17
2018-06-05T18:12:44.799Z,72.68
2018-06-05T18:15:21.137Z,72.53
2018-06-05T18:18:01.235Z,73.97
2018-06-05T18:20:31.507Z,73.07
2018-06-05T18:23:02.600Z,74.31
2018-06-05T18:28:02.847Z,74.76
2018-06-05T18:33:49.715Z,74.10
2018-06-05T18:36:21.626Z,73.86
2018-06-05T18:38:54.403Z,73.80
2018-06-05T18:41:45.505Z,73.46
2018-06-05T18:44:24.150Z,74.53
2018-06-05T18:46:59.484Z,73.04
2018-06-05T18:49:35.177Z,73.44
2018-06-05T18:52:12.719Z,72.58
2018-06-05T18:54:48.696Z,73.68
2018-06-05T18:57:24.806Z,73.47
2018-06-05T19:00:03.663Z,74.61
2018-06-05T19:02:38.179Z,74.88
2018-06-05T19:05:14.193Z,74.57
2018-06-05T19:07:47.973Z,74.16
2018-06-05T19:10:20.995Z,73.50
2018-06-05T19:12:57.655Z,73.61
2018-06-05T19:15:31.112Z,74.31
2018-06-05T19:18:02.511Z,74.52
2018-06-05T19:23:36.530Z,76.01
2018-06-05T19:26:24.653Z,76.03
2018-06-05T19:29:00.643Z,76.42
2018-06-05T19:31:32.783Z,76.84
2018-06-05T19:34:19.495Z,77.75
2018-06-05T19:36:52.463Z,76.93
2018-06-05T19:39:39.190Z,76.87
2018-06-05T19:42:16.797Z,76.33
2018-06-05T19:44:50.780Z,76.80
2018-06-05T19:47:26.469Z,77.67
2018-06-05T19:49:58.673Z,77.68
2018-06-05T19:52:31.840Z,77.87
2018-06-05T19:55:07.747Z,77.83
2018-06-05T19:57:44.213Z,77.78
2018-06-05T20:00:17.506Z,78.42
2018-06-05T20:02:56.917Z,78.17
2018-06-05T20:06:35.821Z,77.94
2018-06-05T20:09:12.971Z,78.69
2018-06-05T20:11:49.262Z,78.85
2018-06-05T20:14:20.596Z,78.84
2018-06-05T20:17:12.663Z,78.37
2018-06-05T20:19:49.599Z,78.30
2018-06-05T20:22:23.178Z,77.76
2018-06-05T20:25:03.552Z,78.54
2018-06-05T20:27:39.894Z,77.94
2018-06-05T20:30:15.805Z,78.10
2018-06-05T20:32:47.950Z,77.75
2018-06-05T20:35:26.342Z,77.61
2018-06-05T20:37:59.662Z,77.99
2018-06-05T20:40:33.329Z,78.75
2018-06-05T20:57:42.110Z,79.18
2018-06-05T21:00:42.497Z,79.67
2018-06-05T21:03:20.469Z,79.19
2018-06-05T21:05:55.210Z,79.25
2018-06-05T21:08:30.022Z,79.34
2018-06-05T21:11:29.079Z,79.32
2018-06-05T21:17:07.334Z,79.66
2018-06-05T21:20:07.825Z,79.73
2018-06-05T21:22:43.588Z,78.74
2018-06-05T21:25:26.263Z,78.34
2018-06-05T21:27:57.290Z,79.22
2018-06-05T21:30:29.242Z,79.29
2018-06-05T21:33:11.478Z,79.79
2018-06-05T21:36:46.826Z,79.35
2018-06-05T21:39:20.312Z,80.15
2018-06-05T21:42:16.621Z,79.92
2018-06-05T21:49:26.456Z,79.66
2018-06-05T21:52:00.481Z,79.43
2018-06-05T21:54:33.618Z,80.00
2018-06-05T21:57:04.656Z,80.20
2018-06-05T22:06:46.886Z,80.35
2018-06-05T22:09:49.138Z,80.52
2018-06-05T22:12:21.865Z,80.60
2018-06-05T22:14:54.380Z,80.65
2018-06-05T22:17:39.738Z,80.54
2018-06-05T22:28:31.667Z,80.96
2018-06-05T22:31:05.617Z,80.77
2018-06-05T22:33:53.587Z,80.95
2018-06-05T23:39:23.377Z,81.87
2018-06-05T23:41:59.021Z,81.76
2018-06-05T23:44:31.140Z,81.45
2018-06-05T23:47:09.789Z,81.18
2018-06-05T23:49:52.533Z,81.21
2018-06-05T23:52:25.363Z,81.64
2018-06-05T23:55:01.970Z,81.57
2018-06-05T23:57:33.467Z,82.14
